sensor_id;sensor_type;location;lat;lon;timestamp;pressure;altitude;pressure_sealevel;temperature;humidity
43820;BME280;67762;52.476;6.046;2023-02-20T00:00:57;102403.75;;;5.72;85.31
43820;BME280;67762;52.476;6.046;2023-02-20T00:03:23;102394.88;;;5.73;85.54
43820;BME280;67762;52.476;6.046;2023-02-20T00:05:48;102388.47;;;5.77;85.41
43820;BME280;67762;52.476;6.046;2023-02-20T00:08:14;102383.16;;;5.77;85.18
43820;BME280;67762;52.476;6.046;2023-02-20T00:10:39;102375.78;;;5.82;84.50
43820;BME280;67762;52.476;6.046;2023-02-20T00:13:05;102379.16;;;5.84;85.09
43820;BME280;67762;52.476;6.046;2023-02-20T00:15:31;102375.50;;;5.87;84.77
43820;BME280;67762;52.476;6.046;2023-02-20T00:17:56;102389.31;;;5.92;84.37
43820;BME280;67762;52.476;6.046;2023-02-20T00:20:23;102379.56;;;5.93;84.86
43820;BME280;67762;52.476;6.046;2023-02-20T00:22:49;102373.16;;;5.97;84.78
43820;BME280;67762;52.476;6.046;2023-02-20T00:25:16;102365.81;;;6.00;84.71
43820;BME280;67762;52.476;6.046;2023-02-20T00:27:42;102368.22;;;6.05;84.91
43820;BME280;67762;52.476;6.046;2023-02-20T00:30:09;102361.00;;;6.07;84.83
43820;BME280;67762;52.476;6.046;2023-02-20T00:32:36;102362.78;;;6.06;84.50
43820;BME280;67762;52.476;6.046;2023-02-20T00:35:01;102358.34;;;6.07;83.92
43820;BME280;67762;52.476;6.046;2023-02-20T00:37:27;102356.56;;;6.07;84.40
43820;BME280;67762;52.476;6.046;2023-02-20T00:39:52;102346.81;;;6.08;84.29
43820;BME280;67762;52.476;6.046;2023-02-20T00:42:17;102351.06;;;6.10;84.32
43820;BME280;67762;52.476;6.046;2023-02-20T00:44:43;102339.59;;;6.10;84.39
43820;BME280;67762;52.476;6.046;2023-02-20T00:47:08;102340.16;;;6.15;84.15
43820;BME280;67762;52.476;6.046;2023-02-20T00:49:34;102339.22;;;6.16;83.48
43820;BME280;67762;52.476;6.046;2023-02-20T00:52:12;102325.13;;;6.15;83.92
43820;BME280;67762;52.476;6.046;2023-02-20T00:54:38;102329.16;;;6.21;83.51
43820;BME280;67762;52.476;6.046;2023-02-20T00:57:03;102313.91;;;6.24;83.93
43820;BME280;67762;52.476;6.046;2023-02-20T00:59:29;102310.09;;;6.28;83.24
43820;BME280;67762;52.476;6.046;2023-02-20T01:01:54;102303.00;;;6.29;83.30
43820;BME280;67762;52.476;6.046;2023-02-20T01:04:20;102296.00;;;6.28;83.41
43820;BME280;67762;52.476;6.046;2023-02-20T01:06:45;102295.16;;;6.27;83.33
43820;BME280;67762;52.476;6.046;2023-02-20T01:09:11;102285.31;;;6.29;83.30
43820;BME280;67762;52.476;6.046;2023-02-20T01:11:36;102285.19;;;6.31;83.41
43820;BME280;67762;52.476;6.046;2023-02-20T01:14:02;102266.44;;;6.34;83.42
43820;BME280;67762;52.476;6.046;2023-02-20T01:16:28;102261.78;;;6.37;83.06
43820;BME280;67762;52.476;6.046;2023-02-20T01:18:54;102257.34;;;6.38;82.79
43820;BME280;67762;52.476;6.046;2023-02-20T01:21:19;102227.31;;;6.37;82.93
43820;BME280;67762;52.476;6.046;2023-02-20T01:23:45;102246.81;;;6.36;82.69
43820;BME280;67762;52.476;6.046;2023-02-20T01:26:10;102250.63;;;6.32;83.16
43820;BME280;67762;52.476;6.046;2023-02-20T01:28:36;102254.44;;;6.28;83.54
43820;BME280;67762;52.476;6.046;2023-02-20T01:31:02;102258.13;;;6.26;82.96
43820;BME280;67762;52.476;6.046;2023-02-20T01:33:28;102242.22;;;6.26;83.50
43820;BME280;67762;52.476;6.046;2023-02-20T01:35:53;102249.53;;;6.22;83.25
43820;BME280;67762;52.476;6.046;2023-02-20T01:38:20;102252.50;;;6.18;83.02
43820;BME280;67762;52.476;6.046;2023-02-20T01:40:46;102245.81;;;6.12;83.13
43820;BME280;67762;52.476;6.046;2023-02-20T01:43:12;102245.25;;;6.07;83.59
43820;BME280;67762;52.476;6.046;2023-02-20T01:45:38;102232.88;;;6.08;83.17
43820;BME280;67762;52.476;6.046;2023-02-20T01:48:03;102217.06;;;6.06;83.75
43820;BME280;67762;52.476;6.046;2023-02-20T01:50:30;102217.25;;;6.03;84.05
43820;BME280;67762;52.476;6.046;2023-02-20T01:52:58;102205.19;;;5.99;84.07
43820;BME280;67762;52.476;6.046;2023-02-20T01:55:30;102212.25;;;5.99;84.11
43820;BME280;67762;52.476;6.046;2023-02-20T01:57:58;102209.06;;;5.94;84.03
43820;BME280;67762;52.476;6.046;2023-02-20T02:00:25;102217.09;;;5.92;84.04
43820;BME280;67762;52.476;6.046;2023-02-20T02:02:55;102212.88;;;5.89;83.60
43820;BME280;67762;52.476;6.046;2023-02-20T02:05:22;102204.19;;;5.87;83.78
43820;BME280;67762;52.476;6.046;2023-02-20T02:07:52;102201.59;;;5.86;84.36
43820;BME280;67762;52.476;6.046;2023-02-20T02:10:23;102192.16;;;5.82;84.43
43820;BME280;67762;52.476;6.046;2023-02-20T02:12:50;102193.09;;;5.81;84.32
43820;BME280;67762;52.476;6.046;2023-02-20T02:15:18;102204.34;;;5.84;84.62
43820;BME280;67762;52.476;6.046;2023-02-20T02:28:09;102191.16;;;5.97;84.79
43820;BME280;67762;52.476;6.046;2023-02-20T02:36:09;102176.78;;;6.01;84.29
43820;BME280;67762;52.476;6.046;2023-02-20T02:38:44;102167.03;;;6.02;84.97
43820;BME280;67762;52.476;6.046;2023-02-20T02:44:33;102153.03;;;6.00;84.93
43820;BME280;67762;52.476;6.046;2023-02-20T02:51:36;102143.25;;;5.87;84.94
43820;BME280;67762;52.476;6.046;2023-02-20T02:56:41;102142.03;;;5.79;85.26
43820;BME280;67762;52.476;6.046;2023-02-20T02:59:08;102137.25;;;5.71;85.23
43820;BME280;67762;52.476;6.046;2023-02-20T03:01:34;102136.59;;;5.68;85.44
43820;BME280;67762;52.476;6.046;2023-02-20T03:04:02;102125.34;;;5.64;85.63
43820;BME280;67762;52.476;6.046;2023-02-20T03:06:31;102122.88;;;5.61;85.62
43820;BME280;67762;52.476;6.046;2023-02-20T03:09:04;102139.81;;;5.59;85.33
43820;BME280;67762;52.476;6.046;2023-02-20T03:11:31;102130.28;;;5.56;85.60
43820;BME280;67762;52.476;6.046;2023-02-20T03:14:11;102141.72;;;5.57;85.89
43820;BME280;67762;52.476;6.046;2023-02-20T03:19:41;102148.09;;;5.54;85.80
43820;BME280;67762;52.476;6.046;2023-02-20T03:22:09;102135.69;;;5.55;86.26
43820;BME280;67762;52.476;6.046;2023-02-20T03:24:37;102149.38;;;5.61;86.14
43820;BME280;67762;52.476;6.046;2023-02-20T03:27:25;102155.66;;;5.73;86.04
43820;BME280;67762;52.476;6.046;2023-02-20T03:29:53;102145.22;;;5.84;86.08
43820;BME280;67762;52.476;6.046;2023-02-20T03:32:21;102138.28;;;5.96;86.65
43820;BME280;67762;52.476;6.046;2023-02-20T03:35:07;102137.03;;;6.01;85.88
43820;BME280;67762;52.476;6.046;2023-02-20T03:37:51;102129.63;;;6.06;86.14
43820;BME280;67762;52.476;6.046;2023-02-20T03:40:36;102115.84;;;6.14;86.34
43820;BME280;67762;52.476;6.046;2023-02-20T03:43:23;102127.19;;;6.28;86.73
43820;BME280;67762;52.476;6.046;2023-02-20T03:46:00;102124.78;;;6.38;86.64
43820;BME280;67762;52.476;6.046;2023-02-20T03:48:47;102133.13;;;6.44;86.48
43820;BME280;67762;52.476;6.046;2023-02-20T03:51:15;102132.50;;;6.54;86.74
43820;BME280;67762;52.476;6.046;2023-02-20T03:53:48;102139.72;;;6.64;86.82
43820;BME280;67762;52.476;6.046;2023-02-20T03:56:15;102131.25;;;6.72;86.78
43820;BME280;67762;52.476;6.046;2023-02-20T03:58:44;102125.69;;;6.75;86.19
43820;BME280;67762;52.476;6.046;2023-02-20T04:01:11;102113.19;;;6.77;86.10
43820;BME280;67762;52.476;6.046;2023-02-20T04:03:40;102108.41;;;6.82;86.21
43820;BME280;67762;52.476;6.046;2023-02-20T04:06:09;102112.66;;;6.84;86.00
43820;BME280;67762;52.476;6.046;2023-02-20T04:08:37;102097.44;;;6.86;85.70
43820;BME280;67762;52.476;6.046;2023-02-20T04:11:06;102097.16;;;6.91;86.15
43820;BME280;67762;52.476;6.046;2023-02-20T04:13:34;102086.91;;;6.97;85.45
43820;BME280;67762;52.476;6.046;2023-02-20T04:16:00;102088.41;;;7.01;85.36
43820;BME280;67762;52.476;6.046;2023-02-20T04:18:26;102077.88;;;7.00;85.20
43820;BME280;67762;52.476;6.046;2023-02-20T04:20:54;102076.81;;;7.02;85.43
43820;BME280;67762;52.476;6.046;2023-02-20T04:23:29;102072.78;;;7.10;85.59
43820;BME280;67762;52.476;6.046;2023-02-20T04:28:53;102072.34;;;7.16;85.88
43820;BME280;67762;52.476;6.046;2023-02-20T04:31:19;102074.53;;;7.22;85.36
43820;BME280;67762;52.476;6.046;2023-02-20T04:33:46;102088.31;;;7.27;85.96
43820;BME280;67762;52.476;6.046;2023-02-20T04:36:17;102086.41;;;7.29;85.75
43820;BME280;67762;52.476;6.046;2023-02-20T04:38:43;102086.41;;;7.29;85.95
43820;BME280;67762;52.476;6.046;2023-02-20T04:41:12;102073.75;;;7.32;85.01
43820;BME280;67762;52.476;6.046;2023-02-20T04:43:38;102089.34;;;7.37;85.15
43820;BME280;67762;52.476;6.046;2023-02-20T04:46:04;102062.69;;;7.38;84.93
43820;BME280;67762;52.476;6.046;2023-02-20T04:48:31;102082.00;;;7.40;85.42
43820;BME280;67762;52.476;6.046;2023-02-20T04:50:56;102068.16;;;7.48;85.47
43820;BME280;67762;52.476;6.046;2023-02-20T04:53:22;102074.94;;;7.52;85.59
43820;BME280;67762;52.476;6.046;2023-02-20T04:55:48;102081.69;;;7.56;85.41
43820;BME280;67762;52.476;6.046;2023-02-20T04:58:17;102079.66;;;7.59;85.08
43820;BME280;67762;52.476;6.046;2023-02-20T05:00:50;102085.25;;;7.68;84.77
43820;BME280;67762;52.476;6.046;2023-02-20T05:03:15;102088.63;;;7.70;84.84
43820;BME280;67762;52.476;6.046;2023-02-20T05:05:41;102084.81;;;7.74;84.96
43820;BME280;67762;52.476;6.046;2023-02-20T05:08:06;102098.72;;;7.77;84.81
43820;BME280;67762;52.476;6.046;2023-02-20T05:10:33;102098.47;;;7.80;84.83
43820;BME280;67762;52.476;6.046;2023-02-20T05:12:58;102080.69;;;7.81;84.28
43820;BME280;67762;52.476;6.046;2023-02-20T05:15:24;102100.88;;;7.83;84.33
43820;BME280;67762;52.476;6.046;2023-02-20T05:17:50;102095.47;;;7.85;83.97
43820;BME280;67762;52.476;6.046;2023-02-20T05:20:16;102066.09;;;7.86;83.49
43820;BME280;67762;52.476;6.046;2023-02-20T05:22:43;102081.09;;;7.87;83.83
43820;BME280;67762;52.476;6.046;2023-02-20T05:25:09;102078.31;;;7.89;83.96
43820;BME280;67762;52.476;6.046;2023-02-20T05:27:34;102069.28;;;7.91;83.36
43820;BME280;67762;52.476;6.046;2023-02-20T05:30:00;102074.59;;;7.91;83.65
43820;BME280;67762;52.476;6.046;2023-02-20T05:32:27;102074.47;;;7.93;83.11
43820;BME280;67762;52.476;6.046;2023-02-20T05:34:53;102073.53;;;7.94;83.04
43820;BME280;67762;52.476;6.046;2023-02-20T05:37:19;102078.84;;;7.94;83.66
43820;BME280;67762;52.476;6.046;2023-02-20T05:39:45;102075.94;;;7.97;82.92
43820;BME280;67762;52.476;6.046;2023-02-20T05:42:10;102066.88;;;7.99;82.76
43820;BME280;67762;52.476;6.046;2023-02-20T05:44:36;102066.88;;;7.99;82.88
43820;BME280;67762;52.476;6.046;2023-02-20T05:47:02;102075.69;;;8.00;83.31
43820;BME280;67762;52.476;6.046;2023-02-20T05:49:27;102069.41;;;8.01;83.33
43820;BME280;67762;52.476;6.046;2023-02-20T05:51:56;102064.94;;;8.01;82.79
43820;BME280;67762;52.476;6.046;2023-02-20T05:54:22;102051.53;;;8.03;83.12
43820;BME280;67762;52.476;6.046;2023-02-20T05:56:48;102060.25;;;8.05;82.48
43820;BME280;67762;52.476;6.046;2023-02-20T05:59:15;102053.22;;;8.04;82.99
43820;BME280;67762;52.476;6.046;2023-02-20T06:01:41;102053.94;;;8.06;82.89
43820;BME280;67762;52.476;6.046;2023-02-20T06:04:07;102044.16;;;8.06;82.47
43820;BME280;67762;52.476;6.046;2023-02-20T06:08:58;102037.91;;;8.07;83.05
43820;BME280;67762;52.476;6.046;2023-02-20T06:11:23;102061.81;;;8.07;82.58
43820;BME280;67762;52.476;6.046;2023-02-20T06:13:48;102047.56;;;8.08;82.76
43820;BME280;67762;52.476;6.046;2023-02-20T06:16:20;102047.44;;;8.10;82.91
43820;BME280;67762;52.476;6.046;2023-02-20T06:18:45;102031.50;;;8.10;82.47
43820;BME280;67762;52.476;6.046;2023-02-20T06:21:11;102030.50;;;8.11;82.64
43820;BME280;67762;52.476;6.046;2023-02-20T06:23:37;102036.69;;;8.11;82.40
43820;BME280;67762;52.476;6.046;2023-02-20T06:26:03;102016.16;;;8.13;82.24
43820;BME280;67762;52.476;6.046;2023-02-20T06:28:28;102032.13;;;8.13;82.63
43820;BME280;67762;52.476;6.046;2023-02-20T06:30:54;102021.47;;;8.13;82.52
43820;BME280;67762;52.476;6.046;2023-02-20T06:33:20;102031.97;;;8.15;82.49
43820;BME280;67762;52.476;6.046;2023-02-20T06:35:45;102016.88;;;8.15;82.53
43820;BME280;67762;52.476;6.046;2023-02-20T06:38:10;102030.03;;;8.17;82.51
43820;BME280;67762;52.476;6.046;2023-02-20T06:40:37;102018.56;;;8.16;83.07
43820;BME280;67762;52.476;6.046;2023-02-20T06:43:02;102034.28;;;8.19;82.63
43820;BME280;67762;52.476;6.046;2023-02-20T06:45:28;102023.53;;;8.21;82.28
43820;BME280;67762;52.476;6.046;2023-02-20T06:47:53;102043.81;;;8.22;83.16
43820;BME280;67762;52.476;6.046;2023-02-20T06:50:19;102046.13;;;8.27;82.72
43820;BME280;67762;52.476;6.046;2023-02-20T06:52:44;102048.69;;;8.28;82.80
43820;BME280;67762;52.476;6.046;2023-02-20T06:55:10;102053.06;;;8.29;82.82
43820;BME280;67762;52.476;6.046;2023-02-20T06:57:35;102044.22;;;8.29;82.30
43820;BME280;67762;52.476;6.046;2023-02-20T07:00:01;102041.34;;;8.32;82.35
43820;BME280;67762;52.476;6.046;2023-02-20T07:02:26;102050.16;;;8.32;82.42
43820;BME280;67762;52.476;6.046;2023-02-20T07:04:52;102051.72;;;8.35;82.74
43820;BME280;67762;52.476;6.046;2023-02-20T07:07:17;102049.94;;;8.35;82.33
43820;BME280;67762;52.476;6.046;2023-02-20T07:09:42;102054.16;;;8.38;82.47
43820;BME280;67762;52.476;6.046;2023-02-20T07:12:08;102028.41;;;8.38;82.42
43820;BME280;67762;52.476;6.046;2023-02-20T07:14:34;102058.38;;;8.40;82.12
43820;BME280;67762;52.476;6.046;2023-02-20T07:16:59;102054.78;;;8.41;82.52
43820;BME280;67762;52.476;6.046;2023-02-20T07:19:24;102056.44;;;8.42;82.44
43820;BME280;67762;52.476;6.046;2023-02-20T07:21:50;102059.00;;;8.44;82.02
43820;BME280;67762;52.476;6.046;2023-02-20T07:24:16;102061.53;;;8.45;81.97
43820;BME280;67762;52.476;6.046;2023-02-20T07:26:41;102051.75;;;8.46;82.27
43820;BME280;67762;52.476;6.046;2023-02-20T07:29:07;102056.22;;;8.45;82.27
43820;BME280;67762;52.476;6.046;2023-02-20T07:31:32;102074.72;;;8.47;81.86
43820;BME280;67762;52.476;6.046;2023-02-20T07:33:58;102064.91;;;8.47;82.06
43820;BME280;67762;52.476;6.046;2023-02-20T07:36:23;102063.94;;;8.48;81.70
43820;BME280;67762;52.476;6.046;2023-02-20T07:38:53;102067.31;;;8.50;81.61
43820;BME280;67762;52.476;6.046;2023-02-20T07:41:19;102053.06;;;8.51;81.68
43820;BME280;67762;52.476;6.046;2023-02-20T07:43:44;102056.59;;;8.52;81.50
43820;BME280;67762;52.476;6.046;2023-02-20T07:46:10;102068.06;;;8.52;81.80
43820;BME280;67762;52.476;6.046;2023-02-20T07:48:36;102066.13;;;8.54;81.78
43820;BME280;67762;52.476;6.046;2023-02-20T07:51:01;102064.19;;;8.56;81.72
43820;BME280;67762;52.476;6.046;2023-02-20T07:53:27;102059.72;;;8.57;81.53
43820;BME280;67762;52.476;6.046;2023-02-20T07:55:52;102061.28;;;8.59;81.74
43820;BME280;67762;52.476;6.046;2023-02-20T07:58:18;102047.75;;;8.62;81.41
43820;BME280;67762;52.476;6.046;2023-02-20T08:00:44;102055.59;;;8.64;81.06
43820;BME280;67762;52.476;6.046;2023-02-20T08:03:10;102062.63;;;8.65;81.15
43820;BME280;67762;52.476;6.046;2023-02-20T08:05:35;102035.06;;;8.66;81.21
43820;BME280;67762;52.476;6.046;2023-02-20T08:08:01;102056.19;;;8.67;80.83
43820;BME280;67762;52.476;6.046;2023-02-20T08:10:27;102053.44;;;8.69;80.75
43820;BME280;67762;52.476;6.046;2023-02-20T08:12:53;102056.81;;;8.71;80.95
43820;BME280;67762;52.476;6.046;2023-02-20T08:15:19;102036.25;;;8.73;80.43
43820;BME280;67762;52.476;6.046;2023-02-20T08:17:44;102039.75;;;8.73;80.81
43820;BME280;67762;52.476;6.046;2023-02-20T08:20:10;102040.47;;;8.75;80.66
43820;BME280;67762;52.476;6.046;2023-02-20T08:22:36;102042.88;;;8.78;80.60
43820;BME280;67762;52.476;6.046;2023-02-20T08:25:01;102054.25;;;8.80;80.54
43820;BME280;67762;52.476;6.046;2023-02-20T08:27:29;102050.50;;;8.83;80.39
43820;BME280;67762;52.476;6.046;2023-02-20T08:29:54;102051.09;;;8.87;80.10
43820;BME280;67762;52.476;6.046;2023-02-20T08:32:20;102050.00;;;8.89;80.16
43820;BME280;67762;52.476;6.046;2023-02-20T08:34:45;102048.19;;;8.90;79.95
43820;BME280;67762;52.476;6.046;2023-02-20T08:37:11;102062.22;;;8.92;80.03
43820;BME280;67762;52.476;6.046;2023-02-20T08:39:36;102056.53;;;8.96;80.19
43820;BME280;67762;52.476;6.046;2023-02-20T08:42:02;102042.38;;;8.96;79.85
43820;BME280;67762;52.476;6.046;2023-02-20T08:44:27;102053.75;;;8.98;79.90
43820;BME280;67762;52.476;6.046;2023-02-20T08:46:53;102053.88;;;8.96;79.91
43820;BME280;67762;52.476;6.046;2023-02-20T08:49:18;102051.06;;;8.98;80.18
43820;BME280;67762;52.476;6.046;2023-02-20T08:51:45;102054.44;;;9.00;79.96
43820;BME280;67762;52.476;6.046;2023-02-20T08:54:11;102045.66;;;8.99;79.77
43820;BME280;67762;52.476;6.046;2023-02-20T08:56:36;102042.84;;;9.01;79.81
43820;BME280;67762;52.476;6.046;2023-02-20T08:59:02;102020.59;;;9.02;79.89
43820;BME280;67762;52.476;6.046;2023-02-20T09:01:27;102042.84;;;9.01;80.12
43820;BME280;67762;52.476;6.046;2023-02-20T09:03:53;102041.03;;;9.01;79.69
43820;BME280;67762;52.476;6.046;2023-02-20T09:06:18;102048.88;;;9.03;79.71
43820;BME280;67762;52.476;6.046;2023-02-20T09:08:46;102055.78;;;9.05;79.96
43820;BME280;67762;52.476;6.046;2023-02-20T09:11:13;102052.88;;;9.08;79.86
43820;BME280;67762;52.476;6.046;2023-02-20T09:13:42;102045.72;;;9.09;80.03
43820;BME280;67762;52.476;6.046;2023-02-20T09:16:08;102048.38;;;9.09;80.54
43820;BME280;67762;52.476;6.046;2023-02-20T09:18:34;102044.88;;;9.08;80.00
43820;BME280;67762;52.476;6.046;2023-02-20T09:20:59;102056.53;;;9.07;80.14
43820;BME280;67762;52.476;6.046;2023-02-20T09:23:24;102055.53;;;9.08;79.94
43820;BME280;67762;52.476;6.046;2023-02-20T09:25:51;102044.16;;;9.06;80.06
43820;BME280;67762;52.476;6.046;2023-02-20T09:28:18;102061.00;;;9.07;79.99
43820;BME280;67762;52.476;6.046;2023-02-20T09:30:43;102059.28;;;9.06;79.86
43820;BME280;67762;52.476;6.046;2023-02-20T09:33:08;102034.38;;;9.07;79.97
43820;BME280;67762;52.476;6.046;2023-02-20T09:35:34;102050.19;;;9.08;80.25
43820;BME280;67762;52.476;6.046;2023-02-20T09:37:59;102050.94;;;9.10;80.17
43820;BME280;67762;52.476;6.046;2023-02-20T09:40:27;102050.41;;;9.16;79.99
43820;BME280;67762;52.476;6.046;2023-02-20T09:45:40;102058.31;;;9.18;80.07
43820;BME280;67762;52.476;6.046;2023-02-20T09:48:09;102021.13;;;9.16;79.82
43820;BME280;67762;52.476;6.046;2023-02-20T09:50:54;102020.31;;;9.16;79.94
43820;BME280;67762;52.476;6.046;2023-02-20T09:53:27;101988.47;;;9.14;80.05
43820;BME280;67762;52.476;6.046;2023-02-20T09:55:55;102023.22;;;9.13;79.82
43820;BME280;67762;52.476;6.046;2023-02-20T10:01:06;102032.63;;;9.17;79.96
43820;BME280;67762;52.476;6.046;2023-02-20T10:03:34;102038.94;;;9.16;79.84
43820;BME280;67762;52.476;6.046;2023-02-20T10:06:02;102031.53;;;9.19;79.73
43820;BME280;67762;52.476;6.046;2023-02-20T10:08:34;102026.81;;;9.23;79.91
43820;BME280;67762;52.476;6.046;2023-02-20T10:11:00;102001.47;;;9.28;79.73
43820;BME280;67762;52.476;6.046;2023-02-20T10:13:37;101990.56;;;9.31;79.81
43820;BME280;67762;52.476;6.046;2023-02-20T10:26:02;102038.22;;;9.46;79.17
43820;BME280;67762;52.476;6.046;2023-02-20T10:28:29;102024.06;;;9.45;79.26
43820;BME280;67762;52.476;6.046;2023-02-20T10:33:51;102020.28;;;9.48;79.14
43820;BME280;67762;52.476;6.046;2023-02-20T10:36:22;102012.88;;;9.51;79.24
43820;BME280;67762;52.476;6.046;2023-02-20T10:38:59;102013.00;;;9.50;78.99
43820;BME280;67762;52.476;6.046;2023-02-20T10:41:31;102018.22;;;9.51;79.22
43820;BME280;67762;52.476;6.046;2023-02-20T10:44:51;102047.63;;;9.50;79.06
43820;BME280;67762;52.476;6.046;2023-02-20T10:52:58;102069.75;;;9.40;79.04
43820;BME280;67762;52.476;6.046;2023-02-20T10:55:34;102077.72;;;9.40;79.16
43820;BME280;67762;52.476;6.046;2023-02-20T10:58:31;102073.38;;;9.39;79.24
43820;BME280;67762;52.476;6.046;2023-02-20T11:01:04;102052.19;;;9.38;79.15
43820;BME280;67762;52.476;6.046;2023-02-20T11:06:01;102043.09;;;9.40;79.20
43820;BME280;67762;52.476;6.046;2023-02-20T11:08:28;102063.31;;;9.43;79.20
43820;BME280;67762;52.476;6.046;2023-02-20T11:11:01;102067.38;;;9.47;79.21
43820;BME280;67762;52.476;6.046;2023-02-20T11:13:30;102072.22;;;9.53;79.07
43820;BME280;67762;52.476;6.046;2023-02-20T11:15:56;102076.09;;;9.60;79.23
43820;BME280;67762;52.476;6.046;2023-02-20T11:18:29;102051.97;;;9.62;79.06
43820;BME280;67762;52.476;6.046;2023-02-20T11:20:56;102053.59;;;9.74;79.08
43820;BME280;67762;52.476;6.046;2023-02-20T11:23:38;102048.72;;;9.79;78.63
43820;BME280;67762;52.476;6.046;2023-02-20T11:28:53;102043.84;;;9.84;78.36
43820;BME280;67762;52.476;6.046;2023-02-20T11:31:20;102041.19;;;9.84;78.26
43820;BME280;67762;52.476;6.046;2023-02-20T11:33:46;102035.44;;;9.88;78.68
43820;BME280;67762;52.476;6.046;2023-02-20T11:36:17;102040.22;;;9.85;78.10
43820;BME280;67762;52.476;6.046;2023-02-20T11:38:44;102022.97;;;9.89;78.06
43820;BME280;67762;52.476;6.046;2023-02-20T11:46:35;102034.94;;;9.94;78.54
43820;BME280;67762;52.476;6.046;2023-02-20T11:49:04;102056.25;;;9.94;78.15
43820;BME280;67762;52.476;6.046;2023-02-20T11:54:18;102041.25;;;9.93;78.20
43820;BME280;67762;52.476;6.046;2023-02-20T11:56:59;102016.16;;;9.96;78.34
43820;BME280;67762;52.476;6.046;2023-02-20T11:59:30;102029.75;;;9.93;77.83
43820;BME280;67762;52.476;6.046;2023-02-20T12:02:24;102035.66;;;9.96;78.43
43820;BME280;67762;52.476;6.046;2023-02-20T12:07:34;102005.16;;;9.89;78.28
43820;BME280;67762;52.476;6.046;2023-02-20T12:12:46;102025.19;;;9.84;77.92
43820;BME280;67762;52.476;6.046;2023-02-20T12:15:14;102036.00;;;9.82;78.17
43820;BME280;67762;52.476;6.046;2023-02-20T12:20:29;102020.13;;;9.81;78.27
43820;BME280;67762;52.476;6.046;2023-02-20T12:23:13;102010.03;;;9.84;78.35
43820;BME280;67762;52.476;6.046;2023-02-20T12:33:53;102013.66;;;9.83;78.63
43820;BME280;67762;52.476;6.046;2023-02-20T12:38:49;102008.34;;;9.83;78.72
43820;BME280;67762;52.476;6.046;2023-02-20T12:54:56;101974.94;;;9.79;78.94
43820;BME280;67762;52.476;6.046;2023-02-20T12:57:36;101998.94;;;9.79;78.50
43820;BME280;67762;52.476;6.046;2023-02-20T13:02:45;101990.78;;;9.81;78.55
43820;BME280;67762;52.476;6.046;2023-02-20T13:05:15;102009.44;;;9.81;78.45
43820;BME280;67762;52.476;6.046;2023-02-20T13:07:51;102005.69;;;9.83;78.55
43820;BME280;67762;52.476;6.046;2023-02-20T13:10:26;102007.50;;;9.83;78.53
43820;BME280;67762;52.476;6.046;2023-02-20T13:12:52;102018.88;;;9.85;78.54
43820;BME280;67762;52.476;6.046;2023-02-20T13:16:00;102007.38;;;9.84;78.38
43820;BME280;67762;52.476;6.046;2023-02-20T13:18:53;101982.28;;;9.87;78.67
43820;BME280;67762;52.476;6.046;2023-02-20T13:21:27;102000.78;;;9.88;78.31
43820;BME280;67762;52.476;6.046;2023-02-20T13:24:12;101997.59;;;9.94;78.78
43820;BME280;67762;52.476;6.046;2023-02-20T13:26:52;101995.78;;;9.95;78.66
43820;BME280;67762;52.476;6.046;2023-02-20T13:29:22;101988.06;;;9.92;78.31
43820;BME280;67762;52.476;6.046;2023-02-20T13:32:02;101981.75;;;9.93;78.16
43820;BME280;67762;52.476;6.046;2023-02-20T13:34:32;101975.16;;;9.97;78.10
43820;BME280;67762;52.476;6.046;2023-02-20T13:36:59;101975.16;;;9.97;78.12
43820;BME280;67762;52.476;6.046;2023-02-20T13:39:33;101962.69;;;9.97;77.84
43820;BME280;67762;52.476;6.046;2023-02-20T13:42:02;101952.72;;;9.99;77.93
43820;BME280;67762;52.476;6.046;2023-02-20T13:44:42;101966.78;;;10.02;77.68
43820;BME280;67762;52.476;6.046;2023-02-20T13:55:24;101948.28;;;10.10;77.96
43820;BME280;67762;52.476;6.046;2023-02-20T14:00:46;101933.13;;;10.10;77.93
43820;BME280;67762;52.476;6.046;2023-02-20T14:03:29;101945.47;;;10.11;77.32
43820;BME280;67762;52.476;6.046;2023-02-20T14:06:13;101948.75;;;10.15;77.51
43820;BME280;67762;52.476;6.046;2023-02-20T14:08:42;101945.25;;;10.14;77.67
43820;BME280;67762;52.476;6.046;2023-02-20T14:11:11;101957.63;;;10.15;77.73
43820;BME280;67762;52.476;6.046;2023-02-20T14:13:39;101953.94;;;10.16;77.68
43820;BME280;67762;52.476;6.046;2023-02-20T14:16:29;101923.91;;;10.14;77.35
43820;BME280;67762;52.476;6.046;2023-02-20T14:18:57;101947.28;;;10.11;77.89
43820;BME280;67762;52.476;6.046;2023-02-20T14:21:24;101946.47;;;10.10;77.49
43820;BME280;67762;52.476;6.046;2023-02-20T14:23:51;101938.31;;;10.12;77.64
43820;BME280;67762;52.476;6.046;2023-02-20T14:26:24;101930.31;;;10.12;78.06
43820;BME280;67762;52.476;6.046;2023-02-20T14:28:54;101927.81;;;10.10;77.50
43820;BME280;67762;52.476;6.046;2023-02-20T14:31:26;101948.41;;;10.08;77.92
43820;BME280;67762;52.476;6.046;2023-02-20T14:34:09;101937.88;;;10.07;77.93
43820;BME280;67762;52.476;6.046;2023-02-20T14:39:41;101921.88;;;10.07;77.78
43820;BME280;67762;52.476;6.046;2023-02-20T14:42:15;101905.88;;;10.07;78.35
43820;BME280;67762;52.476;6.046;2023-02-20T14:44:41;101885.41;;;10.07;78.04
43820;BME280;67762;52.476;6.046;2023-02-20T14:47:13;101904.91;;;10.08;78.01
43820;BME280;67762;52.476;6.046;2023-02-20T14:49:40;101915.28;;;10.11;77.72
43820;BME280;67762;52.476;6.046;2023-02-20T14:52:19;101922.25;;;10.13;77.62
43820;BME280;67762;52.476;6.046;2023-02-20T14:54:57;101923.91;;;10.14;77.64
43820;BME280;67762;52.476;6.046;2023-02-20T14:57:23;101926.56;;;10.14;77.14
43820;BME280;67762;52.476;6.046;2023-02-20T14:59:50;101934.47;;;10.16;78.10
43820;BME280;67762;52.476;6.046;2023-02-20T15:02:26;101925.47;;;10.17;77.56
43820;BME280;67762;52.476;6.046;2023-02-20T15:05:05;101920.13;;;10.17;77.61
43820;BME280;67762;52.476;6.046;2023-02-20T15:07:32;101951.56;;;10.13;77.78
43820;BME280;67762;52.476;6.046;2023-02-20T15:10:02;101933.84;;;10.12;78.23